sensor_id;sensor_type;location;lat;lon;timestamp;temperature;humidity
28010;DHT22;15334;49.494;8.410;2023-04-24T00:00:33;11.90;99.90
28010;DHT22;15334;49.494;8.410;2023-04-24T00:03:05;11.90;99.90
28010;DHT22;15334;49.494;8.410;2023-04-24T00:05:35;11.90;99.90
28010;DHT22;15334;49.494;8.410;2023-04-24T00:08:06;11.80;99.90
28010;DHT22;15334;49.494;8.410;2023-04-24T00:10:44;11.80;99.90
28010;DHT22;15334;49.494;8.410;2023-04-24T00:13:21;11.80;99.90
28010;DHT22;15334;49.494;8.410;2023-04-24T00:15:51;11.80;99.90
28010;DHT22;15334;49.494;8.410;2023-04-24T00:18:20;11.80;99.90
28010;DHT22;15334;49.494;8.410;2023-04-24T00:20:52;11.90;99.90
28010;DHT22;15334;49.494;8.410;2023-04-24T00:23:24;11.90;99.90
28010;DHT22;15334;49.494;8.410;2023-04-24T00:25:53;11.90;99.90
28010;DHT22;15334;49.494;8.410;2023-04-24T00:28:25;11.90;99.90
28010;DHT22;15334;49.494;8.410;2023-04-24T00:30:58;11.90;99.90
28010;DHT22;15334;49.494;8.410;2023-04-24T00:33:29;11.90;99.90
28010;DHT22;15334;49.494;8.410;2023-04-24T00:36:03;11.90;99.90
28010;DHT22;15334;49.494;8.410;2023-04-24T00:38:33;11.90;99.90
28010;DHT22;15334;49.494;8.410;2023-04-24T00:41:03;11.90;99.90
28010;DHT22;15334;49.494;8.410;2023-04-24T00:43:34;11.90;99.90
28010;DHT22;15334;49.494;8.410;2023-04-24T00:46:09;11.90;99.90
28010;DHT22;15334;49.494;8.410;2023-04-24T00:48:39;11.90;99.90
28010;DHT22;15334;49.494;8.410;2023-04-24T00:51:08;12.00;99.90
28010;DHT22;15334;49.494;8.410;2023-04-24T00:53:39;12.00;99.90
28010;DHT22;15334;49.494;8.410;2023-04-24T00:56:09;12.00;99.90
28010;DHT22;15334;49.494;8.410;2023-04-24T00:58:40;12.00;99.90
28010;DHT22;15334;49.494;8.410;2023-04-24T01:01:11;12.00;99.90
28010;DHT22;15334;49.494;8.410;2023-04-24T01:03:41;12.10;99.90
28010;DHT22;15334;49.494;8.410;2023-04-24T01:06:10;12.10;99.90
28010;DHT22;15334;49.494;8.410;2023-04-24T01:08:43;12.10;99.90
28010;DHT22;15334;49.494;8.410;2023-04-24T01:11:14;12.10;99.90
28010;DHT22;15334;49.494;8.410;2023-04-24T01:13:48;12.10;99.90
28010;DHT22;15334;49.494;8.410;2023-04-24T01:16:20;12.10;99.90
28010;DHT22;15334;49.494;8.410;2023-04-24T01:18:52;12.10;99.90
28010;DHT22;15334;49.494;8.410;2023-04-24T01:21:23;12.10;99.90
28010;DHT22;15334;49.494;8.410;2023-04-24T01:23:57;12.10;99.90
28010;DHT22;15334;49.494;8.410;2023-04-24T01:26:27;12.10;99.90
28010;DHT22;15334;49.494;8.410;2023-04-24T01:29:01;12.10;99.90
28010;DHT22;15334;49.494;8.410;2023-04-24T01:31:33;12.00;99.90
28010;DHT22;15334;49.494;8.410;2023-04-24T01:34:07;12.00;99.90
28010;DHT22;15334;49.494;8.410;2023-04-24T01:36:43;12.00;99.90
28010;DHT22;15334;49.494;8.410;2023-04-24T01:39:18;11.90;99.90
28010;DHT22;15334;49.494;8.410;2023-04-24T01:41:50;11.90;99.90
28010;DHT22;15334;49.494;8.410;2023-04-24T01:44:28;12.00;99.90
28010;DHT22;15334;49.494;8.410;2023-04-24T01:46:57;12.00;99.90
28010;DHT22;15334;49.494;8.410;2023-04-24T01:49:26;11.90;99.90
28010;DHT22;15334;49.494;8.410;2023-04-24T01:51:56;11.90;99.90
28010;DHT22;15334;49.494;8.410;2023-04-24T01:54:29;11.90;99.90
28010;DHT22;15334;49.494;8.410;2023-04-24T01:56:59;11.90;99.90
28010;DHT22;15334;49.494;8.410;2023-04-24T01:59:35;11.90;99.90
28010;DHT22;15334;49.494;8.410;2023-04-24T02:02:05;11.90;99.90
28010;DHT22;15334;49.494;8.410;2023-04-24T02:04:39;12.00;99.90
28010;DHT22;15334;49.494;8.410;2023-04-24T02:07:09;11.90;99.90
28010;DHT22;15334;49.494;8.410;2023-04-24T02:09:40;11.90;99.90
28010;DHT22;15334;49.494;8.410;2023-04-24T02:12:11;11.90;99.90
28010;DHT22;15334;49.494;8.410;2023-04-24T02:14:40;12.00;99.90
28010;DHT22;15334;49.494;8.410;2023-04-24T02:17:11;12.00;99.90
28010;DHT22;15334;49.494;8.410;2023-04-24T02:19:48;12.00;99.90
28010;DHT22;15334;49.494;8.410;2023-04-24T02:22:18;12.00;99.90
28010;DHT22;15334;49.494;8.410;2023-04-24T02:24:53;11.90;99.90
28010;DHT22;15334;49.494;8.410;2023-04-24T02:27:29;11.80;99.90
28010;DHT22;15334;49.494;8.410;2023-04-24T02:29:59;11.80;99.90
28010;DHT22;15334;49.494;8.410;2023-04-24T02:32:28;11.70;99.90
28010;DHT22;15334;49.494;8.410;2023-04-24T02:34:58;11.70;99.90
28010;DHT22;15334;49.494;8.410;2023-04-24T02:37:26;11.50;99.90
28010;DHT22;15334;49.494;8.410;2023-04-24T02:39:55;11.40;99.90
28010;DHT22;15334;49.494;8.410;2023-04-24T02:42:23;11.30;99.90
28010;DHT22;15334;49.494;8.410;2023-04-24T02:44:51;11.30;99.90
28010;DHT22;15334;49.494;8.410;2023-04-24T02:47:19;11.20;99.90
28010;DHT22;15334;49.494;8.410;2023-04-24T02:49:47;11.20;99.90
28010;DHT22;15334;49.494;8.410;2023-04-24T02:52:15;11.10;99.90
28010;DHT22;15334;49.494;8.410;2023-04-24T02:54:43;11.00;99.90
28010;DHT22;15334;49.494;8.410;2023-04-24T02:57:12;10.90;99.90
28010;DHT22;15334;49.494;8.410;2023-04-24T02:59:41;10.90;99.90
28010;DHT22;15334;49.494;8.410;2023-04-24T03:02:10;10.90;99.90
28010;DHT22;15334;49.494;8.410;2023-04-24T03:04:38;10.80;99.90
28010;DHT22;15334;49.494;8.410;2023-04-24T03:07:06;10.80;99.90
28010;DHT22;15334;49.494;8.410;2023-04-24T03:09:34;10.70;99.90
28010;DHT22;15334;49.494;8.410;2023-04-24T03:12:02;10.50;99.90
28010;DHT22;15334;49.494;8.410;2023-04-24T03:14:32;10.50;99.90
28010;DHT22;15334;49.494;8.410;2023-04-24T03:17:00;10.50;99.90
28010;DHT22;15334;49.494;8.410;2023-04-24T03:19:28;10.40;99.90
28010;DHT22;15334;49.494;8.410;2023-04-24T03:21:56;10.40;99.90
28010;DHT22;15334;49.494;8.410;2023-04-24T03:24:24;10.30;99.90
28010;DHT22;15334;49.494;8.410;2023-04-24T03:26:54;10.30;99.90
28010;DHT22;15334;49.494;8.410;2023-04-24T03:29:29;10.30;99.90
28010;DHT22;15334;49.494;8.410;2023-04-24T03:32:06;10.20;99.90
28010;DHT22;15334;49.494;8.410;2023-04-24T03:35:05;10.20;99.90
28010;DHT22;15334;49.494;8.410;2023-04-24T03:37:50;10.20;99.90
28010;DHT22;15334;49.494;8.410;2023-04-24T03:40:19;10.20;99.90
28010;DHT22;15334;49.494;8.410;2023-04-24T03:42:54;10.20;99.90
28010;DHT22;15334;49.494;8.410;2023-04-24T03:45:25;10.20;99.90
28010;DHT22;15334;49.494;8.410;2023-04-24T03:47:59;10.20;99.90
28010;DHT22;15334;49.494;8.410;2023-04-24T03:50:32;10.20;99.90
28010;DHT22;15334;49.494;8.410;2023-04-24T03:53:01;10.20;99.90
28010;DHT22;15334;49.494;8.410;2023-04-24T03:55:32;10.00;99.90
28010;DHT22;15334;49.494;8.410;2023-04-24T03:58:10;10.00;99.90
28010;DHT22;15334;49.494;8.410;2023-04-24T04:00:48;9.90;99.90
28010;DHT22;15334;49.494;8.410;2023-04-24T04:03:21;9.90;99.90
28010;DHT22;15334;49.494;8.410;2023-04-24T04:05:56;9.70;99.90
28010;DHT22;15334;49.494;8.410;2023-04-24T04:08:37;9.60;99.90
28010;DHT22;15334;49.494;8.410;2023-04-24T04:11:09;9.60;99.90
28010;DHT22;15334;49.494;8.410;2023-04-24T04:13:48;9.50;99.90
28010;DHT22;15334;49.494;8.410;2023-04-24T04:16:21;9.40;99.90
28010;DHT22;15334;49.494;8.410;2023-04-24T04:19:09;9.40;99.90
28010;DHT22;15334;49.494;8.410;2023-04-24T04:21:44;9.30;99.90
28010;DHT22;15334;49.494;8.410;2023-04-24T04:24:33;9.30;99.90
28010;DHT22;15334;49.494;8.410;2023-04-24T04:27:35;9.20;99.90
28010;DHT22;15334;49.494;8.410;2023-04-24T04:30:16;9.20;99.90
28010;DHT22;15334;49.494;8.410;2023-04-24T04:32:54;9.20;99.90
28010;DHT22;15334;49.494;8.410;2023-04-24T04:35:26;9.10;99.90
28010;DHT22;15334;49.494;8.410;2023-04-24T04:37:54;9.10;99.90
28010;DHT22;15334;49.494;8.410;2023-04-24T04:40:51;9.10;99.90
28010;DHT22;15334;49.494;8.410;2023-04-24T04:43:47;9.10;99.90
28010;DHT22;15334;49.494;8.410;2023-04-24T04:46:32;9.10;99.90
28010;DHT22;15334;49.494;8.410;2023-04-24T04:49:12;9.10;99.90
28010;DHT22;15334;49.494;8.410;2023-04-24T04:52:12;9.10;99.90
28010;DHT22;15334;49.494;8.410;2023-04-24T04:55:05;9.10;99.90
28010;DHT22;15334;49.494;8.410;2023-04-24T04:57:52;9.10;99.90
28010;DHT22;15334;49.494;8.410;2023-04-24T05:00:42;9.10;99.90
28010;DHT22;15334;49.494;8.410;2023-04-24T05:03:14;9.20;99.90
28010;DHT22;15334;49.494;8.410;2023-04-24T05:05:47;9.20;99.90
28010;DHT22;15334;49.494;8.410;2023-04-24T05:08:16;9.30;99.90
28010;DHT22;15334;49.494;8.410;2023-04-24T05:10:52;9.50;99.90
28010;DHT22;15334;49.494;8.410;2023-04-24T05:13:20;9.60;99.90
28010;DHT22;15334;49.494;8.410;2023-04-24T05:16:04;9.70;99.90
28010;DHT22;15334;49.494;8.410;2023-04-24T05:18:33;9.80;99.90
28010;DHT22;15334;49.494;8.410;2023-04-24T05:21:01;9.90;99.90
28010;DHT22;15334;49.494;8.410;2023-04-24T05:23:30;10.00;99.90
28010;DHT22;15334;49.494;8.410;2023-04-24T05:25:58;10.00;99.90
28010;DHT22;15334;49.494;8.410;2023-04-24T05:28:26;10.10;99.90
28010;DHT22;15334;49.494;8.410;2023-04-24T05:30:55;10.10;99.90
28010;DHT22;15334;49.494;8.410;2023-04-24T05:33:23;10.10;99.90
28010;DHT22;15334;49.494;8.410;2023-04-24T05:35:51;10.10;99.90
28010;DHT22;15334;49.494;8.410;2023-04-24T05:38:20;10.10;99.90
28010;DHT22;15334;49.494;8.410;2023-04-24T05:40:50;10.10;99.90
28010;DHT22;15334;49.494;8.410;2023-04-24T05:43:18;10.10;99.90
28010;DHT22;15334;49.494;8.410;2023-04-24T05:45:46;10.20;99.90
28010;DHT22;15334;49.494;8.410;2023-04-24T05:48:14;10.20;99.90
28010;DHT22;15334;49.494;8.410;2023-04-24T05:50:42;10.30;99.90
28010;DHT22;15334;49.494;8.410;2023-04-24T05:53:10;10.40;99.90
28010;DHT22;15334;49.494;8.410;2023-04-24T05:55:38;10.40;99.90
28010;DHT22;15334;49.494;8.410;2023-04-24T05:58:08;10.40;99.90
28010;DHT22;15334;49.494;8.410;2023-04-24T06:00:36;10.50;99.90
28010;DHT22;15334;49.494;8.410;2023-04-24T06:03:04;10.50;99.90
28010;DHT22;15334;49.494;8.410;2023-04-24T06:05:32;10.40;99.90
28010;DHT22;15334;49.494;8.410;2023-04-24T06:08:00;10.40;99.90
28010;DHT22;15334;49.494;8.410;2023-04-24T06:10:28;10.50;99.90
28010;DHT22;15334;49.494;8.410;2023-04-24T06:12:56;10.60;99.90
28010;DHT22;15334;49.494;8.410;2023-04-24T06:15:30;10.60;99.90
28010;DHT22;15334;49.494;8.410;2023-04-24T06:17:58;10.60;99.90
28010;DHT22;15334;49.494;8.410;2023-04-24T06:20:26;10.60;99.90
28010;DHT22;15334;49.494;8.410;2023-04-24T06:22:54;10.60;99.90
28010;DHT22;15334;49.494;8.410;2023-04-24T06:25:25;10.60;99.90
28010;DHT22;15334;49.494;8.410;2023-04-24T06:27:53;10.70;99.90
28010;DHT22;15334;49.494;8.410;2023-04-24T06:30:21;10.70;99.90
28010;DHT22;15334;49.494;8.410;2023-04-24T06:32:51;10.70;99.90
28010;DHT22;15334;49.494;8.410;2023-04-24T06:35:21;10.60;99.90
28010;DHT22;15334;49.494;8.410;2023-04-24T06:37:49;10.60;99.90
28010;DHT22;15334;49.494;8.410;2023-04-24T06:40:17;10.60;99.90
28010;DHT22;15334;49.494;8.410;2023-04-24T06:42:46;10.60;99.90
28010;DHT22;15334;49.494;8.410;2023-04-24T06:45:14;10.60;99.90
28010;DHT22;15334;49.494;8.410;2023-04-24T06:47:42;10.60;99.90
28010;DHT22;15334;49.494;8.410;2023-04-24T06:50:12;10.60;99.90
28010;DHT22;15334;49.494;8.410;2023-04-24T06:52:40;10.60;99.90
28010;DHT22;15334;49.494;8.410;2023-04-24T06:55:09;10.50;99.90
28010;DHT22;15334;49.494;8.410;2023-04-24T06:57:37;10.50;99.90
28010;DHT22;15334;49.494;8.410;2023-04-24T07:00:07;10.60;99.90
28010;DHT22;15334;49.494;8.410;2023-04-24T07:02:36;10.60;99.90
28010;DHT22;15334;49.494;8.410;2023-04-24T07:05:04;10.70;99.90
28010;DHT22;15334;49.494;8.410;2023-04-24T07:07:35;10.70;99.90
28010;DHT22;15334;49.494;8.410;2023-04-24T07:10:05;10.70;99.90
28010;DHT22;15334;49.494;8.410;2023-04-24T07:12:33;10.70;99.90
28010;DHT22;15334;49.494;8.410;2023-04-24T07:15:02;10.80;99.90
28010;DHT22;15334;49.494;8.410;2023-04-24T07:17:30;11.00;99.90
28010;DHT22;15334;49.494;8.410;2023-04-24T07:19:59;11.10;99.90
28010;DHT22;15334;49.494;8.410;2023-04-24T07:22:27;11.30;99.90
28010;DHT22;15334;49.494;8.410;2023-04-24T07:24:56;11.50;99.90
28010;DHT22;15334;49.494;8.410;2023-04-24T07:27:24;11.70;99.90
28010;DHT22;15334;49.494;8.410;2023-04-24T07:29:52;11.90;99.90
28010;DHT22;15334;49.494;8.410;2023-04-24T07:32:20;12.00;99.90
28010;DHT22;15334;49.494;8.410;2023-04-24T07:34:48;12.00;99.90
28010;DHT22;15334;49.494;8.410;2023-04-24T07:37:16;11.90;99.90
28010;DHT22;15334;49.494;8.410;2023-04-24T07:39:45;11.90;99.90
28010;DHT22;15334;49.494;8.410;2023-04-24T07:42:14;11.80;99.90
28010;DHT22;15334;49.494;8.410;2023-04-24T07:44:43;12.00;99.90
28010;DHT22;15334;49.494;8.410;2023-04-24T07:47:12;12.10;99.90
28010;DHT22;15334;49.494;8.410;2023-04-24T07:49:41;12.30;99.90
28010;DHT22;15334;49.494;8.410;2023-04-24T07:52:09;12.30;99.90
28010;DHT22;15334;49.494;8.410;2023-04-24T07:54:37;12.30;99.90
28010;DHT22;15334;49.494;8.410;2023-04-24T07:57:05;12.20;99.90
28010;DHT22;15334;49.494;8.410;2023-04-24T07:59:36;12.30;99.90
28010;DHT22;15334;49.494;8.410;2023-04-24T08:02:04;12.20;99.90
28010;DHT22;15334;49.494;8.410;2023-04-24T08:04:34;12.20;99.90
28010;DHT22;15334;49.494;8.410;2023-04-24T08:07:03;12.30;99.90
28010;DHT22;15334;49.494;8.410;2023-04-24T08:09:31;12.50;99.90
28010;DHT22;15334;49.494;8.410;2023-04-24T08:11:59;12.70;99.90
28010;DHT22;15334;49.494;8.410;2023-04-24T08:14:27;12.80;99.90
28010;DHT22;15334;49.494;8.410;2023-04-24T08:16:57;12.70;99.90
28010;DHT22;15334;49.494;8.410;2023-04-24T08:19:27;12.90;99.90
28010;DHT22;15334;49.494;8.410;2023-04-24T08:21:55;13.00;99.90
28010;DHT22;15334;49.494;8.410;2023-04-24T08:24:23;13.10;99.90
28010;DHT22;15334;49.494;8.410;2023-04-24T08:26:51;13.20;99.90
28010;DHT22;15334;49.494;8.410;2023-04-24T08:29:21;13.30;99.90
28010;DHT22;15334;49.494;8.410;2023-04-24T08:31:48;13.30;99.90
28010;DHT22;15334;49.494;8.410;2023-04-24T08:34:18;13.20;99.90
28010;DHT22;15334;49.494;8.410;2023-04-24T08:36:46;13.20;99.90
28010;DHT22;15334;49.494;8.410;2023-04-24T08:39:14;13.20;99.90
28010;DHT22;15334;49.494;8.410;2023-04-24T08:41:43;13.30;99.90
28010;DHT22;15334;49.494;8.410;2023-04-24T08:44:12;13.50;99.90
28010;DHT22;15334;49.494;8.410;2023-04-24T08:46:43;13.60;99.90
28010;DHT22;15334;49.494;8.410;2023-04-24T08:49:13;13.70;99.90
28010;DHT22;15334;49.494;8.410;2023-04-24T08:51:44;13.60;99.90
28010;DHT22;15334;49.494;8.410;2023-04-24T08:54:13;13.50;99.90
28010;DHT22;15334;49.494;8.410;2023-04-24T08:56:44;13.50;99.90
28010;DHT22;15334;49.494;8.410;2023-04-24T08:59:13;13.40;99.90
28010;DHT22;15334;49.494;8.410;2023-04-24T09:01:41;13.40;99.90
28010;DHT22;15334;49.494;8.410;2023-04-24T09:04:14;13.50;99.90
28010;DHT22;15334;49.494;8.410;2023-04-24T09:06:44;13.30;99.90
28010;DHT22;15334;49.494;8.410;2023-04-24T09:09:12;13.10;99.90
28010;DHT22;15334;49.494;8.410;2023-04-24T09:11:40;12.90;99.90
28010;DHT22;15334;49.494;8.410;2023-04-24T09:14:09;12.70;99.90
28010;DHT22;15334;49.494;8.410;2023-04-24T09:16:37;12.70;99.90
28010;DHT22;15334;49.494;8.410;2023-04-24T09:19:06;12.70;99.90
28010;DHT22;15334;49.494;8.410;2023-04-24T09:21:35;12.70;99.90
28010;DHT22;15334;49.494;8.410;2023-04-24T09:24:06;12.80;99.90
28010;DHT22;15334;49.494;8.410;2023-04-24T09:26:35;12.80;99.90
28010;DHT22;15334;49.494;8.410;2023-04-24T09:29:04;13.00;99.90
28010;DHT22;15334;49.494;8.410;2023-04-24T09:31:32;13.30;99.90
28010;DHT22;15334;49.494;8.410;2023-04-24T09:34:02;13.70;99.90
28010;DHT22;15334;49.494;8.410;2023-04-24T09:36:35;13.90;99.90
28010;DHT22;15334;49.494;8.410;2023-04-24T09:39:07;14.00;99.90
28010;DHT22;15334;49.494;8.410;2023-04-24T09:41:44;14.10;99.90
28010;DHT22;15334;49.494;8.410;2023-04-24T09:44:13;13.90;99.90
28010;DHT22;15334;49.494;8.410;2023-04-24T09:46:42;13.60;99.90
28010;DHT22;15334;49.494;8.410;2023-04-24T09:49:44;13.60;99.90
28010;DHT22;15334;49.494;8.410;2023-04-24T09:54:03;13.20;99.90
28010;DHT22;15334;49.494;8.410;2023-04-24T09:57:06;13.00;99.90
28010;DHT22;15334;49.494;8.410;2023-04-24T09:59:35;13.20;99.90
28010;DHT22;15334;49.494;8.410;2023-04-24T10:02:17;13.50;99.90
28010;DHT22;15334;49.494;8.410;2023-04-24T10:04:54;13.60;99.90
28010;DHT22;15334;49.494;8.410;2023-04-24T10:07:25;13.70;99.90
28010;DHT22;15334;49.494;8.410;2023-04-24T10:09:54;13.60;99.90
28010;DHT22;15334;49.494;8.410;2023-04-24T10:12:24;13.50;99.90
28010;DHT22;15334;49.494;8.410;2023-04-24T10:14:53;13.40;99.90
28010;DHT22;15334;49.494;8.410;2023-04-24T10:17:22;13.30;99.90
28010;DHT22;15334;49.494;8.410;2023-04-24T10:19:51;13.20;99.90
28010;DHT22;15334;49.494;8.410;2023-04-24T10:22:19;13.20;99.90
28010;DHT22;15334;49.494;8.410;2023-04-24T10:24:50;13.30;99.90
28010;DHT22;15334;49.494;8.410;2023-04-24T10:27:20;13.50;99.90
28010;DHT22;15334;49.494;8.410;2023-04-24T10:29:53;13.70;99.90
28010;DHT22;15334;49.494;8.410;2023-04-24T10:32:21;13.90;99.90
28010;DHT22;15334;49.494;8.410;2023-04-24T10:34:49;14.10;99.90
28010;DHT22;15334;49.494;8.410;2023-04-24T10:37:17;14.00;99.90
28010;DHT22;15334;49.494;8.410;2023-04-24T10:39:47;14.10;99.90
28010;DHT22;15334;49.494;8.410;2023-04-24T10:42:17;14.20;99.90
28010;DHT22;15334;49.494;8.410;2023-04-24T10:44:47;13.90;99.90
28010;DHT22;15334;49.494;8.410;2023-04-24T10:47:18;14.00;99.90
28010;DHT22;15334;49.494;8.410;2023-04-24T10:49:46;14.00;99.90
28010;DHT22;15334;49.494;8.410;2023-04-24T10:52:18;13.90;99.90
28010;DHT22;15334;49.494;8.410;2023-04-24T10:54:47;14.00;99.90
28010;DHT22;15334;49.494;8.410;2023-04-24T10:57:29;14.20;99.90
28010;DHT22;15334;49.494;8.410;2023-04-24T11:00:13;14.40;99.90
28010;DHT22;15334;49.494;8.410;2023-04-24T11:02:46;14.10;99.90
28010;DHT22;15334;49.494;8.410;2023-04-24T11:05:18;14.10;99.90
28010;DHT22;15334;49.494;8.410;2023-04-24T11:08:13;13.90;99.90
28010;DHT22;15334;49.494;8.410;2023-04-24T11:10:47;13.70;99.90
28010;DHT22;15334;49.494;8.410;2023-04-24T11:13:16;13.50;99.90
28010;DHT22;15334;49.494;8.410;2023-04-24T11:15:44;13.40;99.90
28010;DHT22;15334;49.494;8.410;2023-04-24T11:18:15;13.30;99.90
28010;DHT22;15334;49.494;8.410;2023-04-24T11:20:43;13.30;99.90
28010;DHT22;15334;49.494;8.410;2023-04-24T11:23:12;13.40;99.90
28010;DHT22;15334;49.494;8.410;2023-04-24T11:25:41;13.50;99.90
28010;DHT22;15334;49.494;8.410;2023-04-24T11:28:14;13.70;99.90
28010;DHT22;15334;49.494;8.410;2023-04-24T11:30:44;13.90;99.90
28010;DHT22;15334;49.494;8.410;2023-04-24T11:33:21;14.10;99.90
28010;DHT22;15334;49.494;8.410;2023-04-24T11:35:51;14.40;99.90
28010;DHT22;15334;49.494;8.410;2023-04-24T11:38:20;14.60;99.90
28010;DHT22;15334;49.494;8.410;2023-04-24T11:40:52;14.50;99.90
28010;DHT22;15334;49.494;8.410;2023-04-24T11:43:20;14.30;99.90
28010;DHT22;15334;49.494;8.410;2023-04-24T11:45:49;14.10;99.90
28010;DHT22;15334;49.494;8.410;2023-04-24T11:48:20;13.90;99.90
28010;DHT22;15334;49.494;8.410;2023-04-24T11:50:50;13.70;99.90
28010;DHT22;15334;49.494;8.410;2023-04-24T11:53:19;13.50;99.90
28010;DHT22;15334;49.494;8.410;2023-04-24T11:55:48;13.30;99.90
28010;DHT22;15334;49.494;8.410;2023-04-24T11:58:20;13.10;99.90
28010;DHT22;15334;49.494;8.410;2023-04-24T12:00:56;13.10;99.90
28010;DHT22;15334;49.494;8.410;2023-04-24T12:03:26;13.30;99.90
28010;DHT22;15334;49.494;8.410;2023-04-24T12:06:04;13.40;99.90
28010;DHT22;15334;49.494;8.410;2023-04-24T12:08:34;13.70;99.90
28010;DHT22;15334;49.494;8.410;2023-04-24T12:11:06;14.10;99.90
28010;DHT22;15334;49.494;8.410;2023-04-24T12:13:35;14.50;99.90
28010;DHT22;15334;49.494;8.410;2023-04-24T12:16:03;14.80;99.90
28010;DHT22;15334;49.494;8.410;2023-04-24T12:18:34;14.90;99.90
28010;DHT22;15334;49.494;8.410;2023-04-24T12:21:21;15.20;99.90
28010;DHT22;15334;49.494;8.410;2023-04-24T12:23:54;15.00;99.90
28010;DHT22;15334;49.494;8.410;2023-04-24T12:26:27;15.00;99.90
28010;DHT22;15334;49.494;8.410;2023-04-24T12:29:05;14.90;99.90
28010;DHT22;15334;49.494;8.410;2023-04-24T12:31:34;14.80;99.90
28010;DHT22;15334;49.494;8.410;2023-04-24T12:34:04;14.70;99.90
28010;DHT22;15334;49.494;8.410;2023-04-24T12:36:44;14.70;99.90
28010;DHT22;15334;49.494;8.410;2023-04-24T12:39:16;14.60;99.90
28010;DHT22;15334;49.494;8.410;2023-04-24T12:41:54;14.70;99.90
28010;DHT22;15334;49.494;8.410;2023-04-24T12:44:30;14.60;99.90
28010;DHT22;15334;49.494;8.410;2023-04-24T12:47:01;14.70;99.90
28010;DHT22;15334;49.494;8.410;2023-04-24T12:49:31;14.70;99.90
28010;DHT22;15334;49.494;8.410;2023-04-24T12:51:59;14.70;99.90
28010;DHT22;15334;49.494;8.410;2023-04-24T12:54:32;14.50;99.90
28010;DHT22;15334;49.494;8.410;2023-04-24T12:57:00;14.50;99.90
28010;DHT22;15334;49.494;8.410;2023-04-24T12:59:36;14.50;99.90
28010;DHT22;15334;49.494;8.410;2023-04-24T13:02:06;14.60;99.90
28010;DHT22;15334;49.494;8.410;2023-04-24T13:04:37;14.70;99.90
28010;DHT22;15334;49.494;8.410;2023-04-24T13:07:08;14.70;99.90
28010;DHT22;15334;49.494;8.410;2023-04-24T13:09:42;14.60;99.90
28010;DHT22;15334;49.494;8.410;2023-04-24T13:12:15;14.70;99.90
28010;DHT22;15334;49.494;8.410;2023-04-24T13:14:51;14.80;99.90
28010;DHT22;15334;49.494;8.410;2023-04-24T13:17:25;15.00;99.90
28010;DHT22;15334;49.494;8.410;2023-04-24T13:20:07;15.20;99.90
28010;DHT22;15334;49.494;8.410;2023-04-24T13:22:40;16.30;99.90
28010;DHT22;15334;49.494;8.410;2023-04-24T13:25:20;17.80;99.90
28010;DHT22;15334;49.494;8.410;2023-04-24T13:27:59;19.00;99.90
28010;DHT22;15334;49.494;8.410;2023-04-24T13:30:44;19.70;98.10
28010;DHT22;15334;49.494;8.410;2023-04-24T13:33:46;18.80;97.70
28010;DHT22;15334;49.494;8.410;2023-04-24T13:36:47;18.20;99.90
28010;DHT22;15334;49.494;8.410;2023-04-24T13:39:22;17.90;99.90
28010;DHT22;15334;49.494;8.410;2023-04-24T13:42:16;17.90;99.60
28010;DHT22;15334;49.494;8.410;2023-04-24T13:45:37;16.90;99.90
28010;DHT22;15334;49.494;8.410;2023-04-24T13:48:46;16.40;99.90
28010;DHT22;15334;49.494;8.410;2023-04-24T13:51:18;15.50;99.90
28010;DHT22;15334;49.494;8.410;2023-04-24T13:54:15;15.20;99.90
28010;DHT22;15334;49.494;8.410;2023-04-24T13:57:34;14.90;99.90
28010;DHT22;15334;49.494;8.410;2023-04-24T14:00:33;14.80;99.90
28010;DHT22;15334;49.494;8.410;2023-04-24T14:03:08;14.40;99.90
28010;DHT22;15334;49.494;8.410;2023-04-24T14:05:37;14.10;99.90
28010;DHT22;15334;49.494;8.410;2023-04-24T14:08:38;14.20;99.90
28010;DHT22;15334;49.494;8.410;2023-04-24T14:11:22;14.20;99.90
28010;DHT22;15334;49.494;8.410;2023-04-24T14:14:18;14.20;99.90
28010;DHT22;15334;49.494;8.410;2023-04-24T14:17:01;14.20;99.90
28010;DHT22;15334;49.494;8.410;2023-04-24T14:19:43;14.20;99.90
28010;DHT22;15334;49.494;8.410;2023-04-24T14:22:25;14.10;99.90
28010;DHT22;15334;49.494;8.410;2023-04-24T14:25:00;14.10;99.90
28010;DHT22;15334;49.494;8.410;2023-04-24T14:27:54;14.40;99.90
28010;DHT22;15334;49.494;8.410;2023-04-24T14:30:56;14.80;99.90
28010;DHT22;15334;49.494;8.410;2023-04-24T14:33:47;15.20;99.90
28010;DHT22;15334;49.494;8.410;2023-04-24T14:36:39;15.40;99.90
28010;DHT22;15334;49.494;8.410;2023-04-24T14:39:21;15.60;99.90
28010;DHT22;15334;49.494;8.410;2023-04-24T14:42:06;15.60;99.90
28010;DHT22;15334;49.494;8.410;2023-04-24T14:44:40;15.60;99.90
28010;DHT22;15334;49.494;8.410;2023-04-24T14:47:14;15.70;99.90
28010;DHT22;15334;49.494;8.410;2023-04-24T14:50:05;15.70;99.90
28010;DHT22;15334;49.494;8.410;2023-04-24T14:53:04;15.80;99.90
28010;DHT22;15334;49.494;8.410;2023-04-24T14:55:40;15.50;99.90
28010;DHT22;15334;49.494;8.410;2023-04-24T14:58:09;15.30;99.90
28010;DHT22;15334;49.494;8.410;2023-04-24T15:00:53;15.00;99.90
28010;DHT22;15334;49.494;8.410;2023-04-24T15:04:17;14.70;99.90
28010;DHT22;15334;49.494;8.410;2023-04-24T15:07:04;14.60;99.90
28010;DHT22;15334;49.494;8.410;2023-04-24T15:10:22;14.30;99.90
28010;DHT22;15334;49.494;8.410;2023-04-24T15:13:33;13.90;99.90
28010;DHT22;15334;49.494;8.410;2023-04-24T15:19:32;13.10;99.90
28010;DHT22;15334;49.494;8.410;2023-04-24T15:22:53;12.90;99.90
28010;DHT22;15334;49.494;8.410;2023-04-24T15:25:56;12.90;99.90
28010;DHT22;15334;49.494;8.410;2023-04-24T15:29:08;13.00;99.90
28010;DHT22;15334;49.494;8.410;2023-04-24T15:31:57;13.10;99.90
28010;DHT22;15334;49.494;8.410;2023-04-24T15:38:10;13.40;99.90
28010;DHT22;15334;49.494;8.410;2023-04-24T15:40:51;13.30;99.90
28010;DHT22;15334;49.494;8.410;2023-04-24T15:43:59;13.20;99.90
28010;DHT22;15334;49.494;8.410;2023-04-24T15:46:37;13.20;99.90
28010;DHT22;15334;49.494;8.410;2023-04-24T15:49:37;13.20;99.90
28010;DHT22;15334;49.494;8.410;2023-04-24T15:52:18;13.10;99.90
28010;DHT22;15334;49.494;8.410;2023-04-24T15:55:18;13.20;99.90
28010;DHT22;15334;49.494;8.410;2023-04-24T15:58:05;13.10;99.90
28010;DHT22;15334;49.494;8.410;2023-04-24T16:00:48;13.10;99.90
28010;DHT22;15334;49.494;8.410;2023-04-24T16:03:32;13.10;99.90
28010;DHT22;15334;49.494;8.410;2023-04-24T16:06:21;13.00;99.90
28010;DHT22;15334;49.494;8.410;2023-04-24T16:09:05;13.10;99.90
28010;DHT22;15334;49.494;8.410;2023-04-24T16:12:03;13.10;99.90
28010;DHT22;15334;49.494;8.410;2023-04-24T16:14:49;13.20;99.90
28010;DHT22;15334;49.494;8.410;2023-04-24T16:17:47;13.30;99.90
28010;DHT22;15334;49.494;8.410;2023-04-24T16:20:33;13.50;99.90
28010;DHT22;15334;49.494;8.410;2023-04-24T16:23:20;13.80;99.90
28010;DHT22;15334;49.494;8.410;2023-04-24T16:25:52;13.80;99.90
28010;DHT22;15334;49.494;8.410;2023-04-24T16:28:21;14.00;99.90